Terminal Aerodrome Forecast
Issued by NWS St Louis, MO

Home | Current Version | Previous Version | Text Only | Print | Product List | Glossary On
Versions: 1 2 3 4 5 6 7 8 9 10 11 12 13 14 15 16 17 18 19 20 21 22 23 24 25 26 27 28 29
000
FTUS43 KLSX 270800 AAA
TAFSTL
TAF AMD
KSTL 270841Z 2709/2812 20009KT P6SM SCT080 BKN250
     FM271000 20010KT P6SM VCTS BKN050CB
      TEMPO 2711/2713 5SM -SHRA BKN030
     FM271300 24008KT P6SM SCT060
     FM271600 27010KT P6SM SCT040
     FM280100 VRB04KT P6SM SKC
     FM280600 13004KT P6SM SKC=

USA.gov is the U.S. government's official web portal to all federal, state and local government web resources and services.